Αναφορές METAR Αεροδρομίων

 

LGTS - THESSALONIKI - GREECE
Ενημερώθηκε: 21/01/2018 14:20
Σχεδόν νεφελώδης
Σχεδόν νεφελώδης
 Ανεμος από Δ
Ανεμος: Δ 13 km/h
Θερμοκρασία: 9°C
Wind Chill: 7°C
Σημ. Δρόσου: 3°C
Υγρασία: 66%
Βαρόμετρο: 1005 hPa
Clouds: Σχεδόν νεφελώδης
Visibility: 10 km
Cloud details: Αραιές Νεφώσεις 305 m
Σχεδόν νεφελώδης 762 m
2018/01/21 12:20 LGTS 211220Z 28007KT 9999 FEW010 BKN025 09/03 Q1005 NOSIG
LGLR - LARTISA - GREECE
Ενημερώθηκε: 21/01/2018 13:50
Σχεδόν νεφελώδης
Σχεδόν νεφελώδης
 Ανεμος από ΝΑ
Ανεμος: ΝΑ 7 km/h
Θερμοκρασία: 10°C
Wind Chill: 9°C
Σημ. Δρόσου: 10°C
Υγρασία: 100%
Βαρόμετρο: 1005 hPa
Clouds: Σχεδόν νεφελώδης
Visibility: 10 km
Cloud details: Αραιές Νεφώσεις 914 m
Σχεδόν νεφελώδης 2438 m
2018/01/21 11:50 LGLR 211150Z 13004KT 9999 FEW030 BKN080 10/10 Q1005 RMK OVC180 BLU
 
LGKZ - KOZANI - GREECE
Ενημερώθηκε: 21/01/2018 13:50
Σχεδόν νεφελώδης
Σχεδόν νεφελώδης
 Ανεμος από calm
Ανεμος: Απνοια
Θερμοκρασία: 8°C
Σημ. Δρόσου: 3°C
Υγρασία: 71%
Βαρόμετρο: 1005 hPa
Clouds: Σχεδόν νεφελώδης
Visibility: 10 km
Cloud details: Αραιές Νεφώσεις 610 m
Σχεδόν νεφελώδης 2134 m
2018/01/21 11:50 LGKZ 211150Z 00000KT 9999 FEW020 BKN070 08/03 Q1005
LGKV - KAVALA - GREECE
Ενημερώθηκε: 21/01/2018 14:20
Σχεδόν νεφελώδης
Σχεδόν νεφελώδης
 Ανεμος από ΒΑ
Ανεμος: ΒΑ 9 km/h
Θερμοκρασία: 9°C
Wind Chill: 7°C
Σημ. Δρόσου: 8°C
Υγρασία: 94%
Βαρόμετρο: 1005 hPa
Clouds: Σχεδόν νεφελώδης
Visibility: 10 km
Cloud details: Αραιές Νεφώσεις 305 m
Σχεδόν νεφελώδης 762 m
Σχεδόν νεφελώδης 2438 m
2018/01/21 12:20 LGKV 211220Z 04005KT 9999 FEW010 BKN025 BKN080 09/08 Q1005
 
LGIO - IOANNINA - GREECE
Ενημερώθηκε: 21/01/2018 14:20
Βροχή, Σχεδόν νεφελώδης
Βροχή, Σχεδόν νεφελώδης
 Ανεμος από varies
Ανεμος: varies 0 km/h
Θερμοκρασία: 9°C
Σημ. Δρόσου: 9°C
Υγρασία: 100%
Βαρόμετρο: 1005 hPa
Περίληψη: Βροχή
Clouds: Σχεδόν νεφελώδης
Visibility: 7 km
Cloud details: Μερικώς νεφελώδης 244 m
Μερικώς νεφελώδης 610 m
Σχεδόν νεφελώδης 2438 m
2018/01/21 12:20 LGIO 211220Z /////KT 7000 RA SCT008 SCT020 BKN080 09/09 Q1005
LGBL - BOLOS - GREECE
Ενημερώθηκε: 21/01/2018 14:20
Ασθενής βροχή, Σχεδόν νεφελώδης
Ασθενής βροχή, Σχεδόν νεφελώδης
 Ανεμος από ΒΒΔ
Ανεμος: ΒΒΔ 9 km/h
Θερμοκρασία: 12°C
Σημ. Δρόσου: 11°C
Υγρασία: 94%
Βαρόμετρο: 1004 hPa
Περίληψη: Ασθενής βροχή
Clouds: Σχεδόν νεφελώδης
Visibility: 8 km
Cloud details: Αραιές Νεφώσεις 762 m
Σχεδόν νεφελώδης 2134 m
2018/01/21 12:20 LGBL 211220Z 34005KT 8000 -RA FEW025 BKN070 12/11 Q1004
 
LGMT - MITILINI - GREECE
Ενημερώθηκε: 21/01/2018 14:20
Μερικώς νεφελώδης
Μερικώς νεφελώδης
 Ανεμος από ΝΝΑ
Ανεμος: ΝΝΑ 28 km/h
Θερμοκρασία: 15°C
Σημ. Δρόσου: 11°C
Υγρασία: 77%
Βαρόμετρο: 1009 hPa
Clouds: Μερικώς νεφελώδης
Visibility: 10 km
Cloud details: Αραιές Νεφώσεις 549 m
Μερικώς νεφελώδης 610 m
2018/01/21 12:20 LGMT 211220Z 15015KT 130V230 9999 FEW018 SCT020 15/11 Q1009
LGAV - ATHENS - GREECE
Ενημερώθηκε: 21/01/2018 14:20
Μερικώς νεφελώδης
Μερικώς νεφελώδης
 Ανεμος από ΝΝΑ
Ανεμος: ΝΝΑ 24 km/h
Θερμοκρασία: 16°C
Σημ. Δρόσου: 8°C
Υγρασία: 59%
Βαρόμετρο: 1006 hPa
Clouds: Μερικώς νεφελώδης
Visibility: 10 km
Cloud details: Μερικώς νεφελώδης 1067 m
2018/01/21 12:20 LGAV 211220Z 15013KT 9999 SCT035 16/08 Q1006 NOSIG
 
LGRP - RODOS - GREECE
Ενημερώθηκε: 21/01/2018 14:20
Σχεδόν νεφελώδης
Σχεδόν νεφελώδης
 Ανεμος από ΝΑ
Ανεμος: ΝΑ 15 km/h
Θερμοκρασία: 16°C
Σημ. Δρόσου: 12°C
Υγρασία: 77%
Βαρόμετρο: 1011 hPa
Clouds: Σχεδόν νεφελώδης
Visibility: 10 km
Cloud details: Αραιές Νεφώσεις 488 m
Σχεδόν νεφελώδης 610 m
2018/01/21 12:20 LGRP 211220Z 13008KT 090V170 9999 FEW016 BKN020 16/12 Q1011 WS ALL RWY NOSIG
LGIR - HRAKLIO/KRITI - GREECE
Ενημερώθηκε: 21/01/2018 14:20
Μερικώς νεφελώδης
Μερικώς νεφελώδης
 Ανεμος από Ν
Ανεμος: Ν 28 km/h
Θερμοκρασία: 18°C
Σημ. Δρόσου: 11°C
Υγρασία: 64%
Βαρόμετρο: 1010 hPa
Clouds: Μερικώς νεφελώδης
Visibility: 10 km
Cloud details: Μερικώς νεφελώδης 610 m
2018/01/21 12:20 LGIR 211220Z 17015KT 9999 SCT020 18/11 Q1010 NOSIG
 
LGMK - MIKONOS - GREECE
Ενημερώθηκε: 21/01/2018 13:50
Μερικώς νεφελώδης
Μερικώς νεφελώδης
 Ανεμος από ΝΑ
Ανεμος: ΝΑ 13 km/h
Θερμοκρασία: 16°C
Σημ. Δρόσου: 10°C
Υγρασία: 68%
Βαρόμετρο: 1006 hPa
Clouds: Μερικώς νεφελώδης
Visibility: 10 km
Cloud details: Αραιές Νεφώσεις 610 m
Μερικώς νεφελώδης 914 m
2018/01/21 11:50 LGMK 211150Z 14007KT 9999 FEW020 SCT030 16/10 Q1006
LGKR - KERKIRA - GREECE
Ενημερώθηκε: 21/01/2018 14:20
Σχεδόν νεφελώδης
Σχεδόν νεφελώδης
 Ανεμος από ΔΝΔ
Ανεμος: ΔΝΔ 13 km/h
Θερμοκρασία: 13°C
Σημ. Δρόσου: 11°C
Υγρασία: 88%
Βαρόμετρο: 1005 hPa
Clouds: Σχεδόν νεφελώδης
Visibility: 10 km
Cloud details: Αραιές Νεφώσεις 518 m
Σχεδόν νεφελώδης 914 m
Σχεδόν νεφελώδης 2438 m
2018/01/21 12:20 LGKR 211220Z 24007KT 9999 FEW017 BKN030 BKN080 13/11 Q1005 NOSIG